Hardyston, New Jersey
Current Conditions -  °F | °C
As of 4:53 PM on Friday 28 Nov 2014 (Local Time) from KFWN Reporting Station
Clear Clear  
Wind Chill: 27°   Ceiling: Unl
Heat Index: 27°   Visibility: 10mi
Dew Point: 12°   Wind: 0mph
Humidity: 53%   Direction: NA
Pressure: 30.21"   Gusts: NA
Location:  41.1518°N, 74.5855°W
Report Text: KFWN 282153Z AUTO 00000KT 10SM CLR M03/M11 A3021 RMK AO2 SLP234 T10281111
Loading
Personal Weather Stations






























Interactive Weather Map New forecast layout! Learn more

10-Day Weather Forecast

Advertisements
Track Severe Weather on mobile